Twigg, Illinois
Current Conditions -  °F | °C
As of 6:15 AM on Friday 28 Nov 2014 (Local Time) from KHSB Reporting Station
Clear Clear  
Wind Chill: -3°   Ceiling: Unl
Heat Index: -3°   Visibility: 7mi
Dew Point: -4°   Wind: 3mph
Humidity: 96%   Direction: 140°SE
Pressure: 30.4"   Gusts: NA
Location:  37.9948°N, 88.5401°W
Report Text: KHSB 281215Z AUTO 14003KT 7SM CLR M03/M03 A3040 RMK AO2 T10301035
Loading
Personal Weather Stations






























Interactive Weather Map New forecast layout! Learn more

10-Day Weather Forecast

Advertisements
Track Severe Weather on mobile